Time;durP1;ratioP1;P1;durP2;ratioP2;P2;SDS_P1;SDS_P2;PMS_P1;PMS_P2;Temp;Humidity;BMP_temperature;BMP_pressure;BME280_temperature;BME280_humidity;BME280_pressure;Samples;Min_cycle;Max_cycle;Signal;HPM_P1;HPM_P2
2023/10/10 00:02:04;;;;;;;4.10;2.10;;;;;;;;;;6085423;23;20034;-61
2023/10/10 00:04:56;;;;;;;5.28;2.72;;;;;;;;;;6083809;23;20658;-62
2023/10/10 00:07:43;;;;;;;4.65;2.60;;;;;;;;;;6086169;23;20026;-61
2023/10/10 00:10:51;;;;;;;5.28;2.80;;;;;;;;;;6083351;23;20026;-60
2023/10/10 00:13:46;;;;;;;7.78;3.58;;;;;;;;;;6085198;23;20030;-57
2023/10/10 00:16:40;;;;;;;6.70;2.80;;;;;;;;;;6085460;23;20061;-59
2023/10/10 00:19:31;;;;;;;5.30;2.88;;;;;;;;;;6082901;23;20033;-61
2023/10/10 00:22:25;;;;;;;6.40;2.42;;;;;;;;;;6083247;23;20023;-49
2023/10/10 00:25:12;;;;;;;5.60;2.92;;;;;;;;;;6084573;23;20030;-50
2023/10/10 00:28:17;;;;;;;3.85;2.38;;;;;;;;;;6084586;23;20025;-48
2023/10/10 00:30:58;;;;;;;8.82;2.45;;;;;;;;;;6081585;23;20081;-50
2023/10/10 00:33:47;;;;;;;11.23;3.20;;;;;;;;;;6084042;23;20022;-49
2023/10/10 00:36:40;;;;;;;4.13;2.22;;;;;;;;;;6085511;23;20098;-67
2023/10/10 00:39:30;;;;;;;4.13;2.60;;;;;;;;;;6084758;23;20030;-51
2023/10/10 00:42:21;;;;;;;3.08;1.90;;;;;;;;;;6084804;23;20461;-67
2023/10/10 00:45:14;;;;;;;6.50;2.50;;;;;;;;;;6084560;23;20034;-66
2023/10/10 00:48:09;;;;;;;5.30;2.40;;;;;;;;;;6084500;23;20026;-67
2023/10/10 00:51:05;;;;;;;3.92;2.20;;;;;;;;;;6084258;23;20472;-66
2023/10/10 00:56:44;;;;;;;10.10;2.90;;;;;;;;;;6084310;23;20054;-56
2023/10/10 00:59:44;;;;;;;3.67;2.13;;;;;;;;;;6085402;23;20033;-56
2023/10/10 01:02:30;;;;;;;6.05;2.40;;;;;;;;;;6085382;23;20657;-57
2023/10/10 01:05:39;;;;;;;6.00;2.13;;;;;;;;;;6082788;23;20037;-58
2023/10/10 01:08:13;;;;;;;4.38;2.60;;;;;;;;;;6085094;23;20098;-58
2023/10/10 01:11:12;;;;;;;4.85;2.42;;;;;;;;;;6084484;23;20460;-56
2023/10/10 01:14:05;;;;;;;5.05;2.58;;;;;;;;;;6083493;23;20405;-49
2023/10/10 01:16:57;;;;;;;6.15;2.47;;;;;;;;;;6084814;23;20027;-47
2023/10/10 01:19:46;;;;;;;7.70;2.53;;;;;;;;;;6085481;23;20033;-49
2023/10/10 01:22:46;;;;;;;5.78;2.65;;;;;;;;;;6084827;23;20034;-51
2023/10/10 01:28:13;;;;;;;4.35;2.10;;;;;;;;;;6082097;23;20364;-47
2023/10/10 01:31:05;;;;;;;4.95;2.53;;;;;;;;;;6083169;23;20026;-48
2023/10/10 01:33:52;;;;;;;6.07;2.60;;;;;;;;;;6085483;23;20026;-59
2023/10/10 01:36:50;;;;;;;4.43;2.60;;;;;;;;;;6086081;23;20027;-57
2023/10/10 01:39:36;;;;;;;6.10;2.50;;;;;;;;;;6085072;23;20074;-58
2023/10/10 01:42:37;;;;;;;9.50;2.53;;;;;;;;;;6083321;23;20031;-56
2023/10/10 01:45:21;;;;;;;4.30;2.40;;;;;;;;;;6083048;23;20030;-57
2023/10/10 01:48:17;;;;;;;5.05;2.47;;;;;;;;;;6085056;23;20082;-58
2023/10/10 01:51:03;;;;;;;6.68;2.30;;;;;;;;;;6084987;23;20027;-51
2023/10/10 01:53:56;;;;;;;4.45;2.30;;;;;;;;;;6083374;23;20077;-49
2023/10/10 01:56:44;;;;;;;6.25;2.63;;;;;;;;;;6083847;23;20030;-52
2023/10/10 01:59:41;;;;;;;3.60;2.13;;;;;;;;;;6084806;23;20545;-50
2023/10/10 02:02:30;;;;;;;4.10;2.28;;;;;;;;;;6084015;23;20030;-49
2023/10/10 02:08:17;;;;;;;3.22;2.13;;;;;;;;;;6084219;23;20657;-47
2023/10/10 02:11:14;;;;;;;4.53;2.38;;;;;;;;;;6055505;23;20027;-46
2023/10/10 02:14:11;;;;;;;5.35;2.33;;;;;;;;;;6055901;23;20031;-66
2023/10/10 02:17:06;;;;;;;6.22;2.10;;;;;;;;;;6055886;23;20134;-67
2023/10/10 02:20:19;;;;;;;4.20;2.35;;;;;;;;;;6055874;23;20033;-66
2023/10/10 02:25:39;;;;;;;3.92;2.30;;;;;;;;;;6050083;23;20552;-66
2023/10/10 02:28:48;;;;;;;4.80;2.40;;;;;;;;;;6052584;23;20131;-60
2023/10/10 02:31:34;;;;;;;5.97;2.70;;;;;;;;;;6051217;23;20027;-51
2023/10/10 02:34:30;;;;;;;4.07;2.35;;;;;;;;;;6051159;23;20427;-54
2023/10/10 02:40:07;;;;;;;4.15;2.00;;;;;;;;;;6054335;23;20082;-51
2023/10/10 02:43:18;;;;;;;5.50;2.38;;;;;;;;;;6053263;23;20027;-50
2023/10/10 02:45:47;;;;;;;6.57;2.33;;;;;;;;;;6053320;23;20138;-51
2023/10/10 02:48:38;;;;;;;5.55;2.28;;;;;;;;;;6051767;23;20018;-59
2023/10/10 02:51:27;;;;;;;6.15;2.60;;;;;;;;;;6051645;23;20635;-60
2023/10/10 02:54:32;;;;;;;4.50;2.30;;;;;;;;;;6054056;23;20019;-61
2023/10/10 02:59:53;;;;;;;8.50;2.75;;;;;;;;;;6052605;23;20176;-60
2023/10/10 03:02:49;;;;;;;4.88;2.47;;;;;;;;;;6052013;23;20022;-60
2023/10/10 03:05:40;;;;;;;5.25;2.30;;;;;;;;;;6051900;23;20662;-57
2023/10/10 03:08:51;;;;;;;4.10;2.22;;;;;;;;;;6056576;23;20034;-55
2023/10/10 03:11:52;;;;;;;5.78;2.30;;;;;;;;;;6078970;23;20089;-59
2023/10/10 03:14:28;;;;;;;10.48;2.65;;;;;;;;;;6079397;23;20034;-57
2023/10/10 03:17:44;;;;;;;5.57;2.42;;;;;;;;;;6081063;23;20373;-56
2023/10/10 03:25:54;;;;;;;7.03;2.55;;;;;;;;;;6080972;23;20073;-48
2023/10/10 03:28:47;;;;;;;4.88;2.63;;;;;;;;;;6080699;23;20019;-50
2023/10/10 03:31:41;;;;;;;4.00;2.10;;;;;;;;;;6080455;23;20030;-50
2023/10/10 03:34:44;;;;;;;6.43;2.47;;;;;;;;;;6080029;23;20022;-49
2023/10/10 05:24:35;;;;;;;3.72;2.15;;;;;;;;;;6081022;23;20077;-47
2023/10/10 05:27:29;;;;;;;5.25;2.50;;;;;;;;;;6082525;23;20022;-51
2023/10/10 05:30:23;;;;;;;4.28;2.25;;;;;;;;;;6083619;23;20635;-47
2023/10/10 05:33:19;;;;;;;6.18;2.55;;;;;;;;;;6084157;23;20077;-67
2023/10/10 05:36:07;;;;;;;2.90;1.85;;;;;;;;;;6083018;23;20081;-62
2023/10/10 05:38:58;;;;;;;5.85;2.30;;;;;;;;;;6083237;23;20649;-62
2023/10/10 05:41:47;;;;;;;4.05;2.28;;;;;;;;;;6083093;23;20026;-63
2023/10/10 05:44:39;;;;;;;5.53;2.08;;;;;;;;;;6083775;23;20610;-62
2023/10/10 05:47:26;;;;;;;4.70;1.98;;;;;;;;;;6082835;23;20476;-62
2023/10/10 05:50:22;;;;;;;9.90;2.10;;;;;;;;;;6082931;23;20057;-56
2023/10/10 05:53:15;;;;;;;7.78;2.20;;;;;;;;;;6083295;23;20896;-67
2023/10/10 05:56:15;;;;;;;3.58;2.15;;;;;;;;;;6082663;23;20026;-67
2023/10/10 05:59:02;;;;;;;8.27;2.63;;;;;;;;;;6082946;23;20105;-66
2023/10/10 06:01:55;;;;;;;6.85;2.78;;;;;;;;;;6082006;23;20026;-67
2023/10/10 06:04:43;;;;;;;6.78;3.30;;;;;;;;;;6082143;23;20030;-66
2023/10/10 06:07:37;;;;;;;7.18;3.58;;;;;;;;;;6084627;23;20081;-48
2023/10/10 06:10:31;;;;;;;10.32;4.65;;;;;;;;;;6082712;23;20539;-55
2023/10/10 06:13:24;;;;;;;8.65;3.55;;;;;;;;;;6081990;23;20027;-67
2023/10/10 06:16:13;;;;;;;7.88;3.33;;;;;;;;;;6083203;23;20028;-68
2023/10/10 06:19:06;;;;;;;9.25;3.70;;;;;;;;;;6082535;23;20583;-68
2023/10/10 06:21:59;;;;;;;7.25;3.55;;;;;;;;;;6082823;23;20089;-67
2023/10/10 06:24:47;;;;;;;4.32;2.60;;;;;;;;;;6083089;23;20508;-67
2023/10/10 06:27:36;;;;;;;7.28;3.40;;;;;;;;;;6082130;23;20094;-61
2023/10/10 06:30:28;;;;;;;13.02;3.97;;;;;;;;;;6083270;23;20372;-59
2023/10/10 06:33:15;;;;;;;9.60;4.30;;;;;;;;;;6082491;23;20082;-59
2023/10/10 06:38:59;;;;;;;10.38;3.90;;;;;;;;;;6083322;23;20082;-59
2023/10/10 06:41:47;;;;;;;9.55;3.33;;;;;;;;;;6082568;23;20022;-59
2023/10/10 06:44:35;;;;;;;6.57;3.00;;;;;;;;;;6081558;23;20082;-59
2023/10/10 06:47:28;;;;;;;5.70;2.88;;;;;;;;;;6082543;23;20085;-57
2023/10/10 06:50:23;;;;;;;5.60;3.10;;;;;;;;;;6080520;23;20023;-58
2023/10/10 06:53:34;;;;;;;11.02;3.80;;;;;;;;;;6081538;23;20467;-58
2023/10/10 06:56:14;;;;;;;8.67;4.77;;;;;;;;;;6081106;23;20701;-58
2023/10/10 06:59:20;;;;;;;15.75;5.00;;;;;;;;;;6083156;23;20018;-58
2023/10/10 07:02:20;;;;;;;12.02;5.10;;;;;;;;;;6081221;23;20042;-55
2023/10/10 07:05:15;;;;;;;12.45;4.35;;;;;;;;;;6082063;23;20030;-48
2023/10/10 07:07:58;;;;;;;11.00;4.38;;;;;;;;;;6082271;23;20225;-62
2023/10/10 07:10:59;;;;;;;11.20;4.63;;;;;;;;;;6081496;23;20025;-63
2023/10/10 07:13:58;;;;;;;7.60;4.10;;;;;;;;;;6083169;23;20054;-60
2023/10/10 07:16:42;;;;;;;11.20;4.65;;;;;;;;;;6082634;23;20459;-60
2023/10/10 07:19:39;;;;;;;8.38;3.88;;;;;;;;;;6082502;23;20026;-60
2023/10/10 07:22:26;;;;;;;15.15;4.22;;;;;;;;;;6080581;23;20022;-57
2023/10/10 07:25:43;;;;;;;8.45;4.75;;;;;;;;;;6080925;23;20023;-53
2023/10/10 07:28:09;;;;;;;7.45;4.03;;;;;;;;;;6081656;23;20026;-50
2023/10/10 07:31:00;;;;;;;9.15;4.20;;;;;;;;;;6081757;23;20836;-49
2023/10/10 07:33:55;;;;;;;7.63;4.47;;;;;;;;;;6082017;23;20105;-47
2023/10/10 07:36:43;;;;;;;8.75;4.53;;;;;;;;;;6082694;23;20284;-52
2023/10/10 07:39:54;;;;;;;8.52;4.07;;;;;;;;;;6080820;23;20566;-48
2023/10/10 07:42:27;;;;;;;9.05;4.53;;;;;;;;;;6079948;23;20027;-48
2023/10/10 07:45:33;;;;;;;8.05;3.88;;;;;;;;;;6078676;23;20060;-46
2023/10/10 07:51:06;;;;;;;;;;;;;;;;;;6083433;23;19928;-47
2023/10/10 07:53:58;;;;;;;7.80;3.78;;;;;;;;;;6083242;23;19921;-48
2023/10/10 07:56:47;;;;;;;7.75;3.45;;;;;;;;;;6081354;23;20034;-49
2023/10/10 07:59:36;;;;;;;8.32;3.92;;;;;;;;;;6081703;23;20027;-58
2023/10/10 08:05:01;;;;;;;5.03;3.45;;;;;;;;;;6082651;23;20019;-48
2023/10/10 08:07:52;;;;;;;9.95;3.38;;;;;;;;;;6081760;23;20023;-47
2023/10/10 08:10:49;;;;;;;9.02;4.05;;;;;;;;;;6081185;23;20395;-51
2023/10/10 08:13:42;;;;;;;9.10;2.90;;;;;;;;;;6082632;23;20476;-47
2023/10/10 08:16:29;;;;;;;7.45;2.90;;;;;;;;;;6080880;23;20019;-61
2023/10/10 08:19:33;;;;;;;10.20;2.97;;;;;;;;;;6080760;23;20105;-59
2023/10/10 08:22:12;;;;;;;7.95;2.55;;;;;;;;;;6080962;23;20030;-59
2023/10/10 08:25:03;;;;;;;8.23;2.60;;;;;;;;;;6082007;23;20026;-58
2023/10/10 08:27:50;;;;;;;8.43;2.88;;;;;;;;;;6082211;23;20026;-59
2023/10/10 08:30:46;;;;;;;4.55;2.83;;;;;;;;;;6080463;23;20028;-60
2023/10/10 08:33:48;;;;;;;14.88;3.40;;;;;;;;;;6079225;23;20567;-59
2023/10/10 08:36:49;;;;;;;5.90;2.55;;;;;;;;;;6080970;23;20049;-61
2023/10/10 08:39:35;;;;;;;6.88;2.30;;;;;;;;;;6081654;23;20640;-67
2023/10/10 08:42:29;;;;;;;6.13;2.63;;;;;;;;;;6080469;23;20023;-67
2023/10/10 08:45:23;;;;;;;10.48;2.95;;;;;;;;;;6082086;23;20030;-67
2023/10/10 08:48:16;;;;;;;9.73;2.80;;;;;;;;;;6081850;23;20049;-66
2023/10/10 08:51:05;;;;;;;6.20;2.13;;;;;;;;;;6081511;23;20028;-67
2023/10/10 08:54:09;;;;;;;16.20;2.92;;;;;;;;;;6083132;23;20464;-49
2023/10/10 08:57:11;;;;;;;12.93;2.40;;;;;;;;;;6079970;23;20027;-59
2023/10/10 09:00:17;;;;;;;8.63;2.42;;;;;;;;;;6082577;23;20030;-58
2023/10/10 09:02:56;;;;;;;9.67;2.27;;;;;;;;;;6081678;23;20026;-58
2023/10/10 09:05:50;;;;;;;16.08;2.88;;;;;;;;;;6084049;23;20584;-58
2023/10/10 09:08:43;;;;;;;13.00;2.47;;;;;;;;;;6083234;23;20102;-57
2023/10/10 09:11:38;;;;;;;10.60;2.53;;;;;;;;;;6052788;23;20027;-57
2023/10/10 09:14:41;;;;;;;7.43;2.20;;;;;;;;;;6053900;23;20026;-59
2023/10/10 09:17:35;;;;;;;5.38;2.15;;;;;;;;;;6052584;23;20027;-52
2023/10/10 09:20:27;;;;;;;4.87;1.93;;;;;;;;;;6054649;23;20105;-57
2023/10/10 09:23:25;;;;;;;5.45;2.10;;;;;;;;;;6052675;23;20278;-60
2023/10/10 09:26:29;;;;;;;11.38;3.28;;;;;;;;;;6052577;23;20058;-57
2023/10/10 09:29:29;;;;;;;7.53;1.80;;;;;;;;;;6055204;23;20029;-59
2023/10/10 09:32:15;;;;;;;13.15;2.13;;;;;;;;;;6053769;23;20026;-61
2023/10/10 09:35:08;;;;;;;9.32;2.08;;;;;;;;;;6055433;23;20023;-60
2023/10/10 09:38:00;;;;;;;10.85;2.13;;;;;;;;;;6055595;23;20022;-57
2023/10/10 09:40:59;;;;;;;9.55;2.20;;;;;;;;;;6055410;23;20684;-60
2023/10/10 09:43:49;;;;;;;8.43;2.10;;;;;;;;;;6053637;23;20026;-60
2023/10/10 09:46:59;;;;;;;7.70;2.28;;;;;;;;;;6051197;23;20027;-58
2023/10/10 09:50:27;;;;;;;12.75;2.28;;;;;;;;;;6053062;23;20590;-61
2023/10/10 09:52:49;;;;;;;7.97;1.90;;;;;;;;;;6053380;23;20094;-50
2023/10/10 09:55:43;;;;;;;6.63;1.95;;;;;;;;;;6051978;23;20090;-51
2023/10/10 09:58:29;;;;;;;11.85;1.77;;;;;;;;;;6053936;23;20034;-50
2023/10/10 10:01:24;;;;;;;6.50;2.10;;;;;;;;;;6054242;23;20031;-49
2023/10/10 10:04:18;;;;;;;8.60;2.00;;;;;;;;;;6054609;23;20027;-50
2023/10/10 10:07:14;;;;;;;6.50;1.73;;;;;;;;;;6054742;23;20061;-49
2023/10/10 10:10:46;;;;;;;4.70;1.30;;;;;;;;;;6065803;23;20205;-46
2023/10/10 10:13:51;;;;;;;8.52;1.52;;;;;;;;;;6030209;23;20022;-47
2023/10/10 10:17:23;;;;;;;5.10;1.52;;;;;;;;;;6082238;23;20030;-51
2023/10/10 10:21:18;;;;;;;7.00;1.80;;;;;;;;;;5938202;24;20028;-50
2023/10/10 10:23:45;;;;;;;9.10;1.52;;;;;;;;;;5945912;23;20654;-51
2023/10/10 10:26:41;;;;;;;9.98;1.83;;;;;;;;;;6082071;23;20027;-57
2023/10/10 10:29:36;;;;;;;7.22;1.63;;;;;;;;;;6083318;23;20023;-63
2023/10/10 10:32:17;;;;;;;4.15;1.40;;;;;;;;;;6081169;23;20443;-64
2023/10/10 10:35:15;;;;;;;3.75;1.20;;;;;;;;;;6084070;23;20022;-64
2023/10/10 10:38:05;;;;;;;5.28;1.15;;;;;;;;;;6082630;23;20474;-63
2023/10/10 10:41:07;;;;;;;4.03;1.40;;;;;;;;;;6082261;23;20033;-64
2023/10/10 10:43:50;;;;;;;6.95;1.27;;;;;;;;;;6081028;23;20034;-67
2023/10/10 10:46:48;;;;;;;6.18;1.85;;;;;;;;;;6082033;23;20026;-59
2023/10/10 10:49:38;;;;;;;5.00;1.83;;;;;;;;;;6083938;23;20030;-60
2023/10/10 10:52:57;;;;;;;6.60;1.45;;;;;;;;;;6082758;23;20030;-58
2023/10/10 10:58:56;;;;;;;5.85;1.20;;;;;;;;;;6083301;23;20029;-57
2023/10/10 11:01:36;;;;;;;10.70;1.23;;;;;;;;;;6082023;23;20436;-66
2023/10/10 11:04:39;;;;;;;6.82;1.42;;;;;;;;;;6082249;23;20407;-60
2023/10/10 11:07:26;;;;;;;7.68;1.00;;;;;;;;;;6081470;23;20065;-53
2023/10/10 11:10:06;;;;;;;4.30;1.27;;;;;;;;;;6081430;23;20754;-49
2023/10/10 11:13:08;;;;;;;5.38;1.00;;;;;;;;;;6081871;23;20022;-53
2023/10/10 11:16:10;;;;;;;5.47;0.93;;;;;;;;;;6081507;23;20602;-51
2023/10/10 11:18:57;;;;;;;7.03;1.00;;;;;;;;;;6079696;23;20749;-50
2023/10/10 11:21:35;;;;;;;3.97;0.90;;;;;;;;;;6081192;23;20022;-52
2023/10/10 11:24:29;;;;;;;3.45;0.90;;;;;;;;;;6081224;23;20019;-56
2023/10/10 11:27:26;;;;;;;1.23;0.70;;;;;;;;;;6081000;23;20026;-49
2023/10/10 11:30:24;;;;;;;4.63;0.98;;;;;;;;;;6082924;23;20384;-47
2023/10/10 11:33:17;;;;;;;5.10;0.93;;;;;;;;;;6082925;23;20026;-51
2023/10/10 11:36:28;;;;;;;3.42;0.95;;;;;;;;;;6081840;23;20058;-45
2023/10/10 11:39:31;;;;;;;1.52;0.68;;;;;;;;;;6081337;23;20031;-57
2023/10/10 11:42:29;;;;;;;3.53;1.38;;;;;;;;;;6080962;23;20022;-49
2023/10/10 11:45:27;;;;;;;2.13;0.60;;;;;;;;;;6081864;23;20023;-50
2023/10/10 11:48:24;;;;;;;4.35;0.82;;;;;;;;;;6080904;23;20625;-49
2023/10/10 11:51:11;;;;;;;3.22;0.80;;;;;;;;;;6081856;23;20024;-48
2023/10/10 11:54:02;;;;;;;3.03;0.88;;;;;;;;;;6082482;23;20029;-46
2023/10/10 11:56:50;;;;;;;1.92;0.80;;;;;;;;;;6081300;23;20401;-64
2023/10/10 11:59:46;;;;;;;2.20;0.50;;;;;;;;;;6081422;23;20026;-46
2023/10/10 12:02:50;;;;;;;2.10;0.55;;;;;;;;;;6081405;23;20412;-61
2023/10/10 12:05:48;;;;;;;1.75;0.60;;;;;;;;;;6083062;23;20034;-61
2023/10/10 12:08:37;;;;;;;1.98;0.75;;;;;;;;;;6080522;23;20034;-61
2023/10/10 12:11:38;;;;;;;1.38;0.50;;;;;;;;;;6080835;23;20029;-61
2023/10/10 12:14:24;;;;;;;2.72;0.70;;;;;;;;;;6081950;23;20030;-61
2023/10/10 12:17:20;;;;;;;1.35;0.65;;;;;;;;;;6081480;23;20026;-47
2023/10/10 12:20:06;;;;;;;3.28;0.75;;;;;;;;;;6081665;23;20026;-57
2023/10/10 12:23:00;;;;;;;1.48;0.70;;;;;;;;;;6080112;23;20022;-58
2023/10/10 12:25:49;;;;;;;4.30;0.93;;;;;;;;;;6082217;23;20676;-57
2023/10/10 12:28:43;;;;;;;4.15;1.00;;;;;;;;;;6081340;23;20128;-58
2023/10/10 12:31:36;;;;;;;4.00;0.93;;;;;;;;;;6079904;23;20022;-58
2023/10/10 12:34:23;;;;;;;2.45;0.95;;;;;;;;;;6081729;23;20472;-58
2023/10/10 12:37:17;;;;;;;1.75;0.90;;;;;;;;;;6080044;23;20276;-48
2023/10/10 12:40:09;;;;;;;5.65;1.20;;;;;;;;;;6081760;23;20483;-48
2023/10/10 12:43:03;;;;;;;1.73;0.70;;;;;;;;;;6080653;23;20033;-51
2023/10/10 12:45:51;;;;;;;4.18;1.15;;;;;;;;;;6080858;23;20030;-48
2023/10/10 12:48:43;;;;;;;3.38;0.80;;;;;;;;;;6081766;23;20106;-46
2023/10/10 12:51:30;;;;;;;2.97;1.02;;;;;;;;;;6081856;23;20023;-49
2023/10/10 12:54:34;;;;;;;2.45;1.00;;;;;;;;;;6080604;23;20357;-58
2023/10/10 12:57:14;;;;;;;2.08;0.70;;;;;;;;;;6080597;23;20089;-64
2023/10/10 13:00:24;;;;;;;4.85;1.20;;;;;;;;;;6080876;23;20026;-63
2023/10/10 13:03:11;;;;;;;2.10;1.00;;;;;;;;;;6081517;23;20030;-64
2023/10/10 13:06:06;;;;;;;3.83;1.25;;;;;;;;;;6081533;23;20073;-64
2023/10/10 13:09:03;;;;;;;3.35;0.95;;;;;;;;;;6081801;23;20031;-65
2023/10/10 13:12:02;;;;;;;5.47;1.10;;;;;;;;;;6081780;23;20534;-55
2023/10/10 13:14:53;;;;;;;5.32;1.08;;;;;;;;;;6080577;23;20026;-49
2023/10/10 13:17:52;;;;;;;3.38;1.23;;;;;;;;;;6081340;23;20031;-47
2023/10/10 13:20:41;;;;;;;3.78;1.33;;;;;;;;;;6082320;23;20023;-46
2023/10/10 13:23:37;;;;;;;3.17;1.00;;;;;;;;;;6080389;23;20333;-46
2023/10/10 13:26:27;;;;;;;3.40;0.98;;;;;;;;;;6080469;23;20029;-47
2023/10/10 13:29:19;;;;;;;2.28;0.88;;;;;;;;;;6080843;23;20027;-58
2023/10/10 13:32:06;;;;;;;2.28;1.20;;;;;;;;;;6080530;23;20033;-59
2023/10/10 13:35:00;;;;;;;3.08;1.00;;;;;;;;;;6080597;23;20086;-54
2023/10/10 13:37:47;;;;;;;4.30;1.10;;;;;;;;;;6081795;23;20520;-57
2023/10/10 13:40:46;;;;;;;5.95;1.27;;;;;;;;;;6082949;23;20433;-56
2023/10/10 13:43:31;;;;;;;2.83;1.10;;;;;;;;;;6079025;23;20535;-57
2023/10/10 13:46:27;;;;;;;2.25;1.00;;;;;;;;;;6079220;23;20169;-57
2023/10/10 13:49:13;;;;;;;4.20;1.25;;;;;;;;;;6081390;23;20062;-61
2023/10/10 13:52:10;;;;;;;5.80;1.48;;;;;;;;;;6082707;23;20026;-48
2023/10/10 13:54:55;;;;;;;2.90;1.25;;;;;;;;;;6083044;23;20097;-49
2023/10/10 13:57:49;;;;;;;2.22;1.10;;;;;;;;;;6082004;23;20492;-51
2023/10/10 14:00:36;;;;;;;2.67;1.00;;;;;;;;;;6081614;23;20090;-48
2023/10/10 14:03:29;;;;;;;2.80;1.48;;;;;;;;;;6082399;23;20114;-49
2023/10/10 14:06:19;;;;;;;2.22;1.05;;;;;;;;;;6082056;23;20022;-63
2023/10/10 14:09:21;;;;;;;5.93;1.40;;;;;;;;;;6083483;23;20026;-58
2023/10/10 14:12:20;;;;;;;1.98;1.00;;;;;;;;;;6052838;23;20037;-58
2023/10/10 14:15:14;;;;;;;6.68;1.38;;;;;;;;;;6053072;23;20030;-55
2023/10/10 14:18:03;;;;;;;4.20;1.50;;;;;;;;;;6054488;23;20027;-57
2023/10/10 14:20:56;;;;;;;3.78;1.38;;;;;;;;;;6051689;23;20087;-57
2023/10/10 14:23:45;;;;;;;3.97;1.17;;;;;;;;;;6052915;23;20480;-64
2023/10/10 14:26:37;;;;;;;5.57;1.67;;;;;;;;;;6053047;23;20097;-51
2023/10/10 14:29:24;;;;;;;6.32;1.50;;;;;;;;;;6052294;23;20031;-65
2023/10/10 14:32:18;;;;;;;3.08;1.40;;;;;;;;;;6052432;23;20038;-65
2023/10/10 14:35:08;;;;;;;3.40;1.38;;;;;;;;;;6053405;23;20026;-64
2023/10/10 14:38:01;;;;;;;6.65;1.75;;;;;;;;;;6053538;23;20098;-65
2023/10/10 14:40:48;;;;;;;5.05;1.65;;;;;;;;;;6054619;23;20125;-64
2023/10/10 14:43:46;;;;;;;3.65;1.35;;;;;;;;;;6052064;23;20023;-63
2023/10/10 14:46:35;;;;;;;3.42;1.35;;;;;;;;;;6053924;23;20026;-59
2023/10/10 14:49:32;;;;;;;2.75;1.50;;;;;;;;;;6053182;23;20488;-60
2023/10/10 14:52:25;;;;;;;2.42;1.52;;;;;;;;;;6053517;23;20027;-59
2023/10/10 14:55:23;;;;;;;4.93;1.63;;;;;;;;;;6049555;23;20030;-58
2023/10/10 14:58:09;;;;;;;3.20;1.40;;;;;;;;;;6053355;23;20019;-60
2023/10/10 15:00:57;;;;;;;5.32;1.58;;;;;;;;;;6054218;23;20027;-53
2023/10/10 15:03:51;;;;;;;3.42;1.35;;;;;;;;;;6051905;23;20742;-59
2023/10/10 15:06:39;;;;;;;4.40;1.70;;;;;;;;;;6052209;23;20026;-59
2023/10/10 15:09:35;;;;;;;2.70;1.42;;;;;;;;;;6052724;23;20026;-59
2023/10/10 15:12:25;;;;;;;1.77;1.30;;;;;;;;;;6050961;23;20030;-61
2023/10/10 15:15:18;;;;;;;3.50;1.58;;;;;;;;;;6052833;23;20030;-61
2023/10/10 15:18:06;;;;;;;7.07;1.65;;;;;;;;;;6052097;23;20023;-60
2023/10/10 15:20:59;;;;;;;4.13;1.35;;;;;;;;;;6051479;23;20031;-61
2023/10/10 15:23:55;;;;;;;4.13;1.55;;;;;;;;;;6053308;23;20023;-60
2023/10/10 15:26:41;;;;;;;2.95;1.08;;;;;;;;;;6053496;23;20070;-60
2023/10/10 15:29:39;;;;;;;2.60;1.20;;;;;;;;;;6052645;23;20057;-58
2023/10/10 15:32:33;;;;;;;2.42;1.33;;;;;;;;;;6052470;23;20027;-58
2023/10/10 15:35:19;;;;;;;3.58;1.30;;;;;;;;;;6052586;23;20026;-60
2023/10/10 15:38:11;;;;;;;3.80;1.38;;;;;;;;;;6053327;23;20733;-63
2023/10/10 15:40:57;;;;;;;2.80;1.20;;;;;;;;;;6052835;23;20105;-48
2023/10/10 15:43:52;;;;;;;5.10;1.48;;;;;;;;;;6051311;23;20054;-49
2023/10/10 15:46:43;;;;;;;1.55;1.20;;;;;;;;;;6052154;23;20469;-50
2023/10/10 15:49:34;;;;;;;4.60;1.52;;;;;;;;;;6051324;23;20050;-53
2023/10/10 15:52:21;;;;;;;4.95;1.70;;;;;;;;;;6052384;23;20069;-51
2023/10/10 15:55:23;;;;;;;4.22;1.40;;;;;;;;;;6052132;23;20023;-54
2023/10/10 15:58:07;;;;;;;6.78;1.77;;;;;;;;;;6051376;23;20086;-61
2023/10/10 16:00:59;;;;;;;3.38;1.30;;;;;;;;;;6052293;23;20082;-60
2023/10/10 16:03:51;;;;;;;4.97;1.70;;;;;;;;;;6050192;23;20049;-60
2023/10/10 16:06:50;;;;;;;3.20;1.08;;;;;;;;;;6049874;23;20034;-59
2023/10/10 16:09:37;;;;;;;4.00;1.15;;;;;;;;;;6051328;23;20031;-59
2023/10/10 16:12:37;;;;;;;3.30;1.30;;;;;;;;;;6050795;23;20086;-60
2023/10/10 16:15:24;;;;;;;3.15;1.45;;;;;;;;;;6052978;23;20023;-65
2023/10/10 16:18:19;;;;;;;5.60;3.65;;;;;;;;;;6052679;23;20086;-58
2023/10/10 16:21:08;;;;;;;1.88;1.00;;;;;;;;;;6053207;23;20029;-59
2023/10/10 16:24:00;;;;;;;2.38;1.17;;;;;;;;;;6052349;23;20026;-58
2023/10/10 16:26:48;;;;;;;1.65;1.00;;;;;;;;;;6051599;23;20083;-60
2023/10/10 16:29:42;;;;;;;3.67;1.38;;;;;;;;;;6051186;23;20033;-59
2023/10/10 16:32:37;;;;;;;1.17;0.80;;;;;;;;;;6051874;23;20025;-62
2023/10/10 16:35:31;;;;;;;3.40;0.90;;;;;;;;;;6050701;23;20065;-53
2023/10/10 16:38:21;;;;;;;1.23;1.02;;;;;;;;;;6050163;23;20019;-55
2023/10/10 16:41:09;;;;;;;2.35;1.05;;;;;;;;;;6049418;23;20499;-52
2023/10/10 16:43:58;;;;;;;0.77;0.77;;;;;;;;;;6048020;23;20027;-55
2023/10/10 16:46:52;;;;;;;1.38;0.85;;;;;;;;;;6050576;23;20023;-53
2023/10/10 16:49:38;;;;;;;9.88;5.05;;;;;;;;;;6048720;23;20066;-56
2023/10/10 16:52:34;;;;;;;1.13;0.73;;;;;;;;;;6051763;23;20019;-60
2023/10/10 16:55:34;;;;;;;1.42;0.88;;;;;;;;;;6051658;23;20022;-55
2023/10/10 16:58:28;;;;;;;1.48;0.93;;;;;;;;;;6052142;23;20027;-51
2023/10/10 17:01:16;;;;;;;1.20;0.73;;;;;;;;;;6049776;23;20189;-51
2023/10/10 17:04:09;;;;;;;4.60;0.80;;;;;;;;;;6049331;23;20026;-54
2023/10/10 17:06:57;;;;;;;3.60;1.50;;;;;;;;;;6050169;23;20092;-50
2023/10/10 17:54:42;;;;;;;5.72;1.40;;;;;;;;;;6086463;23;20022;-59
2023/10/10 17:57:17;;;;;;;2.03;1.17;;;;;;;;;;6079127;23;20031;-59
2023/10/10 18:00:13;;;;;;;1.10;1.00;;;;;;;;;;6078547;23;20166;-59
2023/10/10 18:02:57;;;;;;;3.78;1.70;;;;;;;;;;6078386;23;20405;-59
2023/10/10 18:05:45;;;;;;;2.17;1.25;;;;;;;;;;6078425;23;20026;-64
2023/10/10 18:08:38;;;;;;;3.22;1.60;;;;;;;;;;6077304;23;20034;-51
2023/10/10 18:11:25;;;;;;;5.63;1.80;;;;;;;;;;6077643;23;20033;-49
2023/10/10 18:14:19;;;;;;;2.25;1.65;;;;;;;;;;6077256;23;20085;-54
2023/10/10 18:17:09;;;;;;;2.25;1.73;;;;;;;;;;6078424;23;20065;-52
2023/10/10 18:20:00;;;;;;;3.53;1.63;;;;;;;;;;6077490;23;20494;-51
2023/10/10 18:22:51;;;;;;;3.03;2.08;;;;;;;;;;6078560;23;20026;-60
2023/10/10 18:25:42;;;;;;;4.45;2.55;;;;;;;;;;6076966;23;20030;-59
2023/10/10 18:28:29;;;;;;;6.40;3.20;;;;;;;;;;6078494;23;20077;-58
2023/10/10 18:31:29;;;;;;;8.93;4.60;;;;;;;;;;6076489;23;20030;-59
2023/10/10 18:34:24;;;;;;;10.95;5.10;;;;;;;;;;6077135;23;20027;-59
2023/10/10 18:37:12;;;;;;;17.35;6.65;;;;;;;;;;6077541;23;20038;-59
2023/10/10 18:40:11;;;;;;;25.58;9.85;;;;;;;;;;6076440;23;20094;-59
2023/10/10 18:42:52;;;;;;;27.50;9.50;;;;;;;;;;6078745;23;20051;-50
2023/10/10 18:45:45;;;;;;;28.85;13.18;;;;;;;;;;6077877;23;20086;-49
2023/10/10 18:48:33;;;;;;;28.88;13.77;;;;;;;;;;6077868;23;20036;-47
2023/10/10 18:51:26;;;;;;;41.83;14.00;;;;;;;;;;6079079;23;20026;-50
2023/10/10 18:54:20;;;;;;;51.22;14.88;;;;;;;;;;6076134;23;20030;-50
2023/10/10 18:57:13;;;;;;;49.08;16.17;;;;;;;;;;6079323;23;20022;-48
2023/10/10 19:00:06;;;;;;;70.25;19.15;;;;;;;;;;6078547;23;20113;-61
2023/10/10 19:02:58;;;;;;;49.90;17.35;;;;;;;;;;6077566;23;20038;-48
2023/10/10 19:05:50;;;;;;;58.92;17.77;;;;;;;;;;6079280;23;20353;-49
2023/10/10 19:08:44;;;;;;;69.47;17.98;;;;;;;;;;6079240;23;20058;-49
2023/10/10 19:11:30;;;;;;;59.53;18.90;;;;;;;;;;6077628;23;20023;-48
2023/10/10 19:14:33;;;;;;;61.95;19.08;;;;;;;;;;6078665;23;20097;-48
2023/10/10 19:17:14;;;;;;;51.75;15.45;;;;;;;;;;6076880;23;20033;-51
2023/10/10 19:20:06;;;;;;;55.95;17.83;;;;;;;;;;6078635;23;20548;-61
2023/10/10 19:22:54;;;;;;;61.20;17.67;;;;;;;;;;6079828;23;20018;-60
2023/10/10 19:25:47;;;;;;;61.60;18.50;;;;;;;;;;6078448;23;20026;-60
2023/10/10 19:28:35;;;;;;;70.75;18.85;;;;;;;;;;6078343;23;20027;-59
2023/10/10 19:31:28;;;;;;;61.17;18.20;;;;;;;;;;6075778;23;20420;-59
2023/10/10 19:34:15;;;;;;;79.07;19.48;;;;;;;;;;6078003;23;20030;-59
2023/10/10 19:37:09;;;;;;;48.90;19.00;;;;;;;;;;6078085;23;20026;-62
2023/10/10 19:39:57;;;;;;;65.55;19.75;;;;;;;;;;6079204;23;20023;-59
2023/10/10 19:42:51;;;;;;;66.53;20.13;;;;;;;;;;6076547;23;20019;-59
2023/10/10 19:45:39;;;;;;;35.73;14.80;;;;;;;;;;6077857;23;20030;-60
2023/10/10 19:48:32;;;;;;;72.90;18.42;;;;;;;;;;6076189;23;20273;-59
2023/10/10 19:51:26;;;;;;;66.68;20.98;;;;;;;;;;6078280;23;20022;-59
2023/10/10 19:54:21;;;;;;;59.53;18.55;;;;;;;;;;6074816;23;20491;-60
2023/10/10 19:57:14;;;;;;;49.45;17.42;;;;;;;;;;6079710;23;20030;-66
2023/10/10 20:00:06;;;;;;;44.70;16.65;;;;;;;;;;6079078;23;20078;-50
2023/10/10 20:02:59;;;;;;;62.67;16.65;;;;;;;;;;6078738;23;20034;-48
2023/10/10 20:05:55;;;;;;;46.28;17.52;;;;;;;;;;6077886;23;20029;-47
2023/10/10 20:08:22;;;;;;;51.28;19.38;;;;;;;;;;6077480;23;20033;-45
2023/10/10 20:10:56;;;;;;;52.22;18.58;;;;;;;;;;6079210;23;20060;-51
2023/10/10 20:13:45;;;;;;;65.97;21.17;;;;;;;;;;6079880;23;20409;-60
2023/10/10 20:16:38;;;;;;;57.47;18.98;;;;;;;;;;6080058;23;20464;-59
2023/10/10 20:19:28;;;;;;;69.30;21.80;;;;;;;;;;6078945;23;20089;-59